SAEZ/EZE METAR and TAF weather

Enter ICAO airport designator
Station Type Date Time Source
SAEZ METAR 2020/08/05 17:00 UTC NOAA

SAEZ 051700Z 36011KT CAVOK 26/13 Q1012 NOSIG


Station Type Date Time Source
SAEZ Decoded METAR 2020/08/05 17:00 UTC NOAA

Ezeiza Aerodrome, Argentina (SAEZ) 34-49S 058-32W 20M
Aug 05, 2020 - 01:00 PM EDT / 2020.08.05 1700 UTC
Wind: from the N (360 degrees) at 13 MPH (11 KT):0
Visibility: greater than 7 mile(s):0
Temperature: 78 F (26 C)
Dew Point: 55 F (13 C)
Relative Humidity: 44%
Pressure (altimeter): 29.88 in. Hg (1012 hPa)
ob: SAEZ 051700Z 36011KT CAVOK 26/13 Q1012 NOSIG
cycle: 17

Station Type Date Time Source
SAEZ TAF 2020/08/05 12:21 UTC NOAA

TAF SAEZ 051100Z 0512/0612 36010KT 5000 FU NSC TX25/0518Z TN13/0610Z
BECMG 0517/0520 9999 SCT040
BECMG 0522/0600 36005KT
BECMG 0602/0604 18015KT SCT030

Example: see airport list